sensor_id;sensor_type;location;lat;lon;timestamp;temperature;humidity
74376;HTU21D;62812;55.188;61.302;2024-03-25T00:00:33;4.59;67.73
74376;HTU21D;62812;55.188;61.302;2024-03-25T00:03:00;4.58;67.70
74376;HTU21D;62812;55.188;61.302;2024-03-25T00:05:26;4.59;67.57
74376;HTU21D;62812;55.188;61.302;2024-03-25T00:07:54;4.56;68.14
74376;HTU21D;62812;55.188;61.302;2024-03-25T00:10:22;4.52;68.44
74376;HTU21D;62812;55.188;61.302;2024-03-25T00:12:49;4.51;68.42
74376;HTU21D;62812;55.188;61.302;2024-03-25T00:15:24;4.48;68.39
74376;HTU21D;62812;55.188;61.302;2024-03-25T00:17:50;4.49;68.28
74376;HTU21D;62812;55.188;61.302;2024-03-25T00:20:17;4.47;68.58
74376;HTU21D;62812;55.188;61.302;2024-03-25T00:22:44;4.46;68.11
74376;HTU21D;62812;55.188;61.302;2024-03-25T00:25:10;4.49;68.42
74376;HTU21D;62812;55.188;61.302;2024-03-25T00:27:39;4.49;67.97
74376;HTU21D;62812;55.188;61.302;2024-03-25T00:30:06;4.47;68.52
74376;HTU21D;62812;55.188;61.302;2024-03-25T00:32:33;4.46;68.50
74376;HTU21D;62812;55.188;61.302;2024-03-25T00:35:00;4.41;69.11
74376;HTU21D;62812;55.188;61.302;2024-03-25T00:37:26;4.39;69.13
74376;HTU21D;62812;55.188;61.302;2024-03-25T00:39:53;4.41;69.03
74376;HTU21D;62812;55.188;61.302;2024-03-25T00:42:19;4.42;69.00
74376;HTU21D;62812;55.188;61.302;2024-03-25T00:44:50;4.39;69.11
74376;HTU21D;62812;55.188;61.302;2024-03-25T00:47:19;4.37;69.30
74376;HTU21D;62812;55.188;61.302;2024-03-25T00:49:45;4.37;69.09
74376;HTU21D;62812;55.188;61.302;2024-03-25T00:52:12;4.36;69.33
74376;HTU21D;62812;55.188;61.302;2024-03-25T00:54:38;4.37;69.37
74376;HTU21D;62812;55.188;61.302;2024-03-25T00:57:05;4.37;69.65
74376;HTU21D;62812;55.188;61.302;2024-03-25T00:59:32;4.33;69.79
74376;HTU21D;62812;55.188;61.302;2024-03-25T01:02:04;4.33;69.63
74376;HTU21D;62812;55.188;61.302;2024-03-25T01:04:31;4.39;69.49
74376;HTU21D;62812;55.188;61.302;2024-03-25T01:06:59;4.43;69.23
74376;HTU21D;62812;55.188;61.302;2024-03-25T01:09:26;4.44;69.48
74376;HTU21D;62812;55.188;61.302;2024-03-25T01:11:52;4.44;69.61
74376;HTU21D;62812;55.188;61.302;2024-03-25T01:14:18;4.39;69.64
74376;HTU21D;62812;55.188;61.302;2024-03-25T01:16:45;4.36;69.44
74376;HTU21D;62812;55.188;61.302;2024-03-25T01:19:13;4.31;69.90
74376;HTU21D;62812;55.188;61.302;2024-03-25T01:21:40;4.30;69.58
74376;HTU21D;62812;55.188;61.302;2024-03-25T01:24:06;4.34;69.51
74376;HTU21D;62812;55.188;61.302;2024-03-25T01:26:33;4.36;69.84
74376;HTU21D;62812;55.188;61.302;2024-03-25T01:28:59;4.38;69.69
74376;HTU21D;62812;55.188;61.302;2024-03-25T01:31:25;4.35;69.80
74376;HTU21D;62812;55.188;61.302;2024-03-25T01:33:52;4.34;69.36
74376;HTU21D;62812;55.188;61.302;2024-03-25T01:36:20;4.31;69.31
74376;HTU21D;62812;55.188;61.302;2024-03-25T01:38:46;4.35;68.43
74376;HTU21D;62812;55.188;61.302;2024-03-25T01:41:13;4.32;68.79
74376;HTU21D;62812;55.188;61.302;2024-03-25T01:43:42;4.37;69.42
74376;HTU21D;62812;55.188;61.302;2024-03-25T01:46:09;4.44;67.68
74376;HTU21D;62812;55.188;61.302;2024-03-25T01:48:36;4.43;69.52
74376;HTU21D;62812;55.188;61.302;2024-03-25T01:51:08;4.39;69.52
74376;HTU21D;62812;55.188;61.302;2024-03-25T01:53:36;4.43;69.37
74376;HTU21D;62812;55.188;61.302;2024-03-25T01:56:03;4.45;69.07
74376;HTU21D;62812;55.188;61.302;2024-03-25T01:58:30;4.50;69.26
74376;HTU21D;62812;55.188;61.302;2024-03-25T02:00:58;4.47;69.61
74376;HTU21D;62812;55.188;61.302;2024-03-25T02:03:30;4.46;69.90
74376;HTU21D;62812;55.188;61.302;2024-03-25T02:05:59;4.46;69.94
74376;HTU21D;62812;55.188;61.302;2024-03-25T02:08:27;4.48;69.61
74376;HTU21D;62812;55.188;61.302;2024-03-25T02:10:56;4.47;69.50
74376;HTU21D;62812;55.188;61.302;2024-03-25T02:13:24;4.46;69.62
74376;HTU21D;62812;55.188;61.302;2024-03-25T02:15:51;4.45;69.78
74376;HTU21D;62812;55.188;61.302;2024-03-25T02:18:19;4.43;70.08
74376;HTU21D;62812;55.188;61.302;2024-03-25T02:20:46;4.38;70.05
74376;HTU21D;62812;55.188;61.302;2024-03-25T02:23:14;4.41;70.00
74376;HTU21D;62812;55.188;61.302;2024-03-25T02:25:42;4.41;70.21
74376;HTU21D;62812;55.188;61.302;2024-03-25T02:28:48;4.45;69.79
74376;HTU21D;62812;55.188;61.302;2024-03-25T02:31:55;4.47;69.74
74376;HTU21D;62812;55.188;61.302;2024-03-25T02:34:22;4.47;69.92
74376;HTU21D;62812;55.188;61.302;2024-03-25T02:36:48;4.48;69.99
74376;HTU21D;62812;55.188;61.302;2024-03-25T02:39:15;4.48;69.26
74376;HTU21D;62812;55.188;61.302;2024-03-25T02:41:42;4.51;69.54
74376;HTU21D;62812;55.188;61.302;2024-03-25T02:44:10;4.53;68.93
74376;HTU21D;62812;55.188;61.302;2024-03-25T02:46:39;4.62;69.53
74376;HTU21D;62812;55.188;61.302;2024-03-25T02:49:06;4.72;69.41
74376;HTU21D;62812;55.188;61.302;2024-03-25T02:51:33;4.86;68.90
74376;HTU21D;62812;55.188;61.302;2024-03-25T02:54:03;4.92;69.09
74376;HTU21D;62812;55.188;61.302;2024-03-25T02:56:31;5.04;68.43
74376;HTU21D;62812;55.188;61.302;2024-03-25T02:58:58;5.03;67.59
74376;HTU21D;62812;55.188;61.302;2024-03-25T03:01:26;5.11;67.05
74376;HTU21D;62812;55.188;61.302;2024-03-25T03:03:53;5.23;67.45
74376;HTU21D;62812;55.188;61.302;2024-03-25T03:06:19;5.50;67.04
74376;HTU21D;62812;55.188;61.302;2024-03-25T03:08:46;5.83;66.04
74376;HTU21D;62812;55.188;61.302;2024-03-25T03:11:13;6.20;65.02
74376;HTU21D;62812;55.188;61.302;2024-03-25T03:13:40;6.41;63.64
74376;HTU21D;62812;55.188;61.302;2024-03-25T03:16:09;6.55;62.76
74376;HTU21D;62812;55.188;61.302;2024-03-25T03:18:37;6.64;62.60
74376;HTU21D;62812;55.188;61.302;2024-03-25T03:21:04;6.81;61.89
74376;HTU21D;62812;55.188;61.302;2024-03-25T03:23:31;6.95;61.64
74376;HTU21D;62812;55.188;61.302;2024-03-25T03:25:58;7.23;61.03
74376;HTU21D;62812;55.188;61.302;2024-03-25T03:28:26;7.43;60.06
74376;HTU21D;62812;55.188;61.302;2024-03-25T03:30:56;7.55;59.78
74376;HTU21D;62812;55.188;61.302;2024-03-25T03:33:23;7.60;59.71
74376;HTU21D;62812;55.188;61.302;2024-03-25T03:35:52;7.60;58.99
74376;HTU21D;62812;55.188;61.302;2024-03-25T03:38:25;7.61;59.09
74376;HTU21D;62812;55.188;61.302;2024-03-25T03:40:58;7.71;58.77
74376;HTU21D;62812;55.188;61.302;2024-03-25T03:43:25;7.75;58.47
74376;HTU21D;62812;55.188;61.302;2024-03-25T03:45:54;7.74;58.68
74376;HTU21D;62812;55.188;61.302;2024-03-25T03:48:21;7.77;58.25
74376;HTU21D;62812;55.188;61.302;2024-03-25T03:50:48;7.89;57.90
74376;HTU21D;62812;55.188;61.302;2024-03-25T03:53:17;7.98;57.35
74376;HTU21D;62812;55.188;61.302;2024-03-25T03:55:53;8.17;57.18
74376;HTU21D;62812;55.188;61.302;2024-03-25T03:58:20;8.45;56.17
74376;HTU21D;62812;55.188;61.302;2024-03-25T04:00:47;8.53;55.65
74376;HTU21D;62812;55.188;61.302;2024-03-25T04:03:14;8.58;55.55
74376;HTU21D;62812;55.188;61.302;2024-03-25T04:05:40;8.75;55.06
74376;HTU21D;62812;55.188;61.302;2024-03-25T04:08:10;8.85;54.24
74376;HTU21D;62812;55.188;61.302;2024-03-25T04:10:38;9.05;54.26
74376;HTU21D;62812;55.188;61.302;2024-03-25T04:13:05;9.15;54.04
74376;HTU21D;62812;55.188;61.302;2024-03-25T04:15:33;9.23;53.31
74376;HTU21D;62812;55.188;61.302;2024-03-25T04:18:00;9.29;53.10
74376;HTU21D;62812;55.188;61.302;2024-03-25T04:20:27;9.40;52.50
74376;HTU21D;62812;55.188;61.302;2024-03-25T04:22:57;9.32;52.86
74376;HTU21D;62812;55.188;61.302;2024-03-25T04:25:45;9.39;52.20
74376;HTU21D;62812;55.188;61.302;2024-03-25T04:32:48;9.52;52.04
74376;HTU21D;62812;55.188;61.302;2024-03-25T04:35:15;9.56;51.60
74376;HTU21D;62812;55.188;61.302;2024-03-25T04:37:41;9.74;50.94
74376;HTU21D;62812;55.188;61.302;2024-03-25T04:40:09;9.67;50.82
74376;HTU21D;62812;55.188;61.302;2024-03-25T04:42:37;9.77;51.01
74376;HTU21D;62812;55.188;61.302;2024-03-25T04:45:05;9.93;50.25
74376;HTU21D;62812;55.188;61.302;2024-03-25T04:47:32;10.06;49.86
74376;HTU21D;62812;55.188;61.302;2024-03-25T04:49:58;9.93;49.05
74376;HTU21D;62812;55.188;61.302;2024-03-25T04:52:25;9.89;50.34
74376;HTU21D;62812;55.188;61.302;2024-03-25T04:54:52;9.98;49.57
74376;HTU21D;62812;55.188;61.302;2024-03-25T04:57:19;10.24;50.14
74376;HTU21D;62812;55.188;61.302;2024-03-25T04:59:47;10.46;49.21
74376;HTU21D;62812;55.188;61.302;2024-03-25T05:02:14;10.57;47.93
74376;HTU21D;62812;55.188;61.302;2024-03-25T05:04:41;10.58;47.38
74376;HTU21D;62812;55.188;61.302;2024-03-25T05:07:07;10.66;47.91
74376;HTU21D;62812;55.188;61.302;2024-03-25T05:09:34;10.65;47.22
74376;HTU21D;62812;55.188;61.302;2024-03-25T05:12:01;10.67;47.45
74376;HTU21D;62812;55.188;61.302;2024-03-25T05:14:27;10.70;47.66
74376;HTU21D;62812;55.188;61.302;2024-03-25T05:16:56;10.70;47.20
74376;HTU21D;62812;55.188;61.302;2024-03-25T05:19:23;10.72;48.05
74376;HTU21D;62812;55.188;61.302;2024-03-25T05:21:49;10.59;47.60
74376;HTU21D;62812;55.188;61.302;2024-03-25T05:24:16;10.66;47.51
74376;HTU21D;62812;55.188;61.302;2024-03-25T05:26:43;10.73;47.17
74376;HTU21D;62812;55.188;61.302;2024-03-25T05:29:12;10.56;46.31
74376;HTU21D;62812;55.188;61.302;2024-03-25T05:31:57;10.48;47.46
74376;HTU21D;62812;55.188;61.302;2024-03-25T05:34:24;10.48;48.38
74376;HTU21D;62812;55.188;61.302;2024-03-25T05:36:51;10.50;47.67
74376;HTU21D;62812;55.188;61.302;2024-03-25T05:39:18;10.30;48.41
74376;HTU21D;62812;55.188;61.302;2024-03-25T05:41:46;10.29;48.15
74376;HTU21D;62812;55.188;61.302;2024-03-25T05:44:13;10.36;48.56
74376;HTU21D;62812;55.188;61.302;2024-03-25T05:46:40;10.34;48.06
74376;HTU21D;62812;55.188;61.302;2024-03-25T05:49:09;10.46;48.37
74376;HTU21D;62812;55.188;61.302;2024-03-25T05:51:35;10.43;49.26
74376;HTU21D;62812;55.188;61.302;2024-03-25T05:54:17;10.45;48.46
74376;HTU21D;62812;55.188;61.302;2024-03-25T05:56:44;10.40;47.61
74376;HTU21D;62812;55.188;61.302;2024-03-25T05:59:11;10.45;47.21
74376;HTU21D;62812;55.188;61.302;2024-03-25T06:01:38;10.40;46.93
74376;HTU21D;62812;55.188;61.302;2024-03-25T06:04:06;10.41;47.36
74376;HTU21D;62812;55.188;61.302;2024-03-25T06:06:35;10.35;46.95
74376;HTU21D;62812;55.188;61.302;2024-03-25T06:09:02;10.28;47.56
74376;HTU21D;62812;55.188;61.302;2024-03-25T06:11:28;10.23;48.47
74376;HTU21D;62812;55.188;61.302;2024-03-25T06:13:55;10.39;48.24
74376;HTU21D;62812;55.188;61.302;2024-03-25T06:16:22;10.49;46.73
74376;HTU21D;62812;55.188;61.302;2024-03-25T06:18:50;10.59;47.37
74376;HTU21D;62812;55.188;61.302;2024-03-25T06:21:17;10.42;46.26
74376;HTU21D;62812;55.188;61.302;2024-03-25T06:23:45;10.14;46.87
74376;HTU21D;62812;55.188;61.302;2024-03-25T06:26:12;10.08;48.15
74376;HTU21D;62812;55.188;61.302;2024-03-25T06:28:38;9.92;47.53
74376;HTU21D;62812;55.188;61.302;2024-03-25T06:31:06;9.78;47.54
74376;HTU21D;62812;55.188;61.302;2024-03-25T06:33:51;9.74;48.54
74376;HTU21D;62812;55.188;61.302;2024-03-25T06:36:36;9.88;47.84
74376;HTU21D;62812;55.188;61.302;2024-03-25T06:39:05;9.81;48.15
74376;HTU21D;62812;55.188;61.302;2024-03-25T06:41:32;9.79;48.23
74376;HTU21D;62812;55.188;61.302;2024-03-25T06:43:59;9.68;48.78
74376;HTU21D;62812;55.188;61.302;2024-03-25T06:46:26;9.56;48.63
74376;HTU21D;62812;55.188;61.302;2024-03-25T06:48:52;9.52;49.14
74376;HTU21D;62812;55.188;61.302;2024-03-25T06:51:19;9.55;50.02
74376;HTU21D;62812;55.188;61.302;2024-03-25T06:53:45;9.68;49.40
74376;HTU21D;62812;55.188;61.302;2024-03-25T06:56:13;9.56;49.34
74376;HTU21D;62812;55.188;61.302;2024-03-25T06:58:40;9.54;48.99
74376;HTU21D;62812;55.188;61.302;2024-03-25T07:01:08;9.62;49.25
74376;HTU21D;62812;55.188;61.302;2024-03-25T07:03:36;9.67;49.91
74376;HTU21D;62812;55.188;61.302;2024-03-25T07:06:03;9.65;49.82
74376;HTU21D;62812;55.188;61.302;2024-03-25T07:08:30;9.75;49.72
74376;HTU21D;62812;55.188;61.302;2024-03-25T07:10:57;9.72;49.95
74376;HTU21D;62812;55.188;61.302;2024-03-25T07:13:25;9.63;49.03
74376;HTU21D;62812;55.188;61.302;2024-03-25T07:15:51;9.68;49.64
74376;HTU21D;62812;55.188;61.302;2024-03-25T07:18:18;9.63;49.73
74376;HTU21D;62812;55.188;61.302;2024-03-25T07:20:45;9.67;50.30
74376;HTU21D;62812;55.188;61.302;2024-03-25T07:23:11;9.60;49.55
74376;HTU21D;62812;55.188;61.302;2024-03-25T07:25:38;9.82;49.39
74376;HTU21D;62812;55.188;61.302;2024-03-25T07:28:06;9.97;49.82
74376;HTU21D;62812;55.188;61.302;2024-03-25T07:30:35;9.86;48.86
74376;HTU21D;62812;55.188;61.302;2024-03-25T07:33:03;9.89;48.99
74376;HTU21D;62812;55.188;61.302;2024-03-25T07:35:31;9.83;49.11
74376;HTU21D;62812;55.188;61.302;2024-03-25T07:37:58;9.92;48.97
74376;HTU21D;62812;55.188;61.302;2024-03-25T07:40:24;10.04;49.68
74376;HTU21D;62812;55.188;61.302;2024-03-25T07:42:52;10.16;49.02
74376;HTU21D;62812;55.188;61.302;2024-03-25T07:45:18;10.18;48.13
74376;HTU21D;62812;55.188;61.302;2024-03-25T07:47:47;10.03;48.02
74376;HTU21D;62812;55.188;61.302;2024-03-25T07:50:14;9.95;49.51
74376;HTU21D;62812;55.188;61.302;2024-03-25T07:52:41;10.04;48.68
74376;HTU21D;62812;55.188;61.302;2024-03-25T07:55:09;10.04;48.76
74376;HTU21D;62812;55.188;61.302;2024-03-25T07:57:36;10.06;48.76
74376;HTU21D;62812;55.188;61.302;2024-03-25T08:00:04;10.00;49.23
74376;HTU21D;62812;55.188;61.302;2024-03-25T08:02:32;10.06;48.43
74376;HTU21D;62812;55.188;61.302;2024-03-25T08:05:02;10.15;48.47
74376;HTU21D;62812;55.188;61.302;2024-03-25T08:07:29;10.04;48.07
74376;HTU21D;62812;55.188;61.302;2024-03-25T08:09:58;9.98;48.84
74376;HTU21D;62812;55.188;61.302;2024-03-25T08:12:25;9.98;49.02
74376;HTU21D;62812;55.188;61.302;2024-03-25T08:14:52;10.10;48.57
74376;HTU21D;62812;55.188;61.302;2024-03-25T08:17:19;10.08;48.75
74376;HTU21D;62812;55.188;61.302;2024-03-25T08:19:48;10.19;49.17
74376;HTU21D;62812;55.188;61.302;2024-03-25T08:22:17;10.12;47.70
74376;HTU21D;62812;55.188;61.302;2024-03-25T08:24:47;10.00;49.06
74376;HTU21D;62812;55.188;61.302;2024-03-25T08:27:14;10.09;47.93
74376;HTU21D;62812;55.188;61.302;2024-03-25T08:29:41;10.14;48.70
74376;HTU21D;62812;55.188;61.302;2024-03-25T08:32:08;10.18;48.46
74376;HTU21D;62812;55.188;61.302;2024-03-25T08:34:36;10.13;48.28
74376;HTU21D;62812;55.188;61.302;2024-03-25T08:37:04;10.39;49.41
74376;HTU21D;62812;55.188;61.302;2024-03-25T08:39:32;10.42;47.65
74376;HTU21D;62812;55.188;61.302;2024-03-25T08:41:59;10.44;47.12
74376;HTU21D;62812;55.188;61.302;2024-03-25T08:44:26;10.66;47.38
74376;HTU21D;62812;55.188;61.302;2024-03-25T08:46:53;10.68;46.67
74376;HTU21D;62812;55.188;61.302;2024-03-25T08:49:20;10.62;46.73
74376;HTU21D;62812;55.188;61.302;2024-03-25T08:51:49;10.58;46.37
74376;HTU21D;62812;55.188;61.302;2024-03-25T08:54:16;10.68;46.70
74376;HTU21D;62812;55.188;61.302;2024-03-25T08:56:45;10.87;48.50
74376;HTU21D;62812;55.188;61.302;2024-03-25T08:59:14;11.07;47.73
74376;HTU21D;62812;55.188;61.302;2024-03-25T09:01:48;10.98;46.33
74376;HTU21D;62812;55.188;61.302;2024-03-25T09:04:18;10.98;45.49
74376;HTU21D;62812;55.188;61.302;2024-03-25T09:06:48;11.18;47.44
74376;HTU21D;62812;55.188;61.302;2024-03-25T09:09:15;10.99;45.22
74376;HTU21D;62812;55.188;61.302;2024-03-25T09:12:02;10.82;45.80
74376;HTU21D;62812;55.188;61.302;2024-03-25T09:14:37;10.70;45.92
74376;HTU21D;62812;55.188;61.302;2024-03-25T09:17:21;10.52;46.71
74376;HTU21D;62812;55.188;61.302;2024-03-25T09:20:48;10.56;46.13
74376;HTU21D;62812;55.188;61.302;2024-03-25T09:23:24;10.56;46.31
74376;HTU21D;62812;55.188;61.302;2024-03-25T09:26:06;10.48;48.50
74376;HTU21D;62812;55.188;61.302;2024-03-25T09:29:42;10.50;49.02
74376;HTU21D;62812;55.188;61.302;2024-03-25T09:32:21;10.56;48.07
74376;HTU21D;62812;55.188;61.302;2024-03-25T09:35:02;10.72;47.88
74376;HTU21D;62812;55.188;61.302;2024-03-25T09:37:29;11.01;48.19
74376;HTU21D;62812;55.188;61.302;2024-03-25T09:39:56;11.10;46.77
74376;HTU21D;62812;55.188;61.302;2024-03-25T09:42:26;10.98;45.71
74376;HTU21D;62812;55.188;61.302;2024-03-25T09:45:08;10.75;45.87
74376;HTU21D;62812;55.188;61.302;2024-03-25T09:47:40;10.70;48.54
74376;HTU21D;62812;55.188;61.302;2024-03-25T09:50:09;10.63;46.77
74376;HTU21D;62812;55.188;61.302;2024-03-25T09:52:43;10.54;47.30
74376;HTU21D;62812;55.188;61.302;2024-03-25T09:55:16;10.57;47.79
74376;HTU21D;62812;55.188;61.302;2024-03-25T09:58:04;10.54;47.18
74376;HTU21D;62812;55.188;61.302;2024-03-25T10:00:40;10.53;47.09
74376;HTU21D;62812;55.188;61.302;2024-03-25T10:03:24;10.48;47.16
74376;HTU21D;62812;55.188;61.302;2024-03-25T10:05:59;10.56;48.02
74376;HTU21D;62812;55.188;61.302;2024-03-25T10:08:30;10.71;47.92
74376;HTU21D;62812;55.188;61.302;2024-03-25T10:10:57;10.81;46.83
74376;HTU21D;62812;55.188;61.302;2024-03-25T10:13:27;10.96;47.48
74376;HTU21D;62812;55.188;61.302;2024-03-25T10:16:05;11.01;48.12
74376;HTU21D;62812;55.188;61.302;2024-03-25T10:18:33;11.09;46.70
74376;HTU21D;62812;55.188;61.302;2024-03-25T10:21:00;10.88;46.41
74376;HTU21D;62812;55.188;61.302;2024-03-25T10:23:26;10.73;47.41
74376;HTU21D;62812;55.188;61.302;2024-03-25T10:25:54;10.73;47.32
74376;HTU21D;62812;55.188;61.302;2024-03-25T10:28:21;10.75;47.01
74376;HTU21D;62812;55.188;61.302;2024-03-25T10:30:53;10.77;47.25
74376;HTU21D;62812;55.188;61.302;2024-03-25T10:33:29;10.63;47.31
74376;HTU21D;62812;55.188;61.302;2024-03-25T10:35:57;10.67;47.19
74376;HTU21D;62812;55.188;61.302;2024-03-25T10:38:26;10.58;47.64
74376;HTU21D;62812;55.188;61.302;2024-03-25T10:40:55;10.54;47.89
74376;HTU21D;62812;55.188;61.302;2024-03-25T10:43:26;10.49;48.24
74376;HTU21D;62812;55.188;61.302;2024-03-25T10:46:01;10.43;47.92
74376;HTU21D;62812;55.188;61.302;2024-03-25T10:48:54;10.44;47.92
74376;HTU21D;62812;55.188;61.302;2024-03-25T10:51:38;10.33;48.28
74376;HTU21D;62812;55.188;61.302;2024-03-25T10:54:06;10.28;49.27
74376;HTU21D;62812;55.188;61.302;2024-03-25T10:56:39;10.24;48.80
74376;HTU21D;62812;55.188;61.302;2024-03-25T10:59:07;10.29;49.19
74376;HTU21D;62812;55.188;61.302;2024-03-25T11:01:35;10.44;48.47
74376;HTU21D;62812;55.188;61.302;2024-03-25T11:04:05;10.48;48.58
74376;HTU21D;62812;55.188;61.302;2024-03-25T11:06:34;10.55;48.80
74376;HTU21D;62812;55.188;61.302;2024-03-25T11:09:01;10.62;48.24
74376;HTU21D;62812;55.188;61.302;2024-03-25T11:11:31;10.55;47.76
74376;HTU21D;62812;55.188;61.302;2024-03-25T11:13:59;10.41;48.60
74376;HTU21D;62812;55.188;61.302;2024-03-25T11:16:30;10.53;48.89
74376;HTU21D;62812;55.188;61.302;2024-03-25T11:19:01;10.54;49.06
74376;HTU21D;62812;55.188;61.302;2024-03-25T11:21:30;10.44;48.50
74376;HTU21D;62812;55.188;61.302;2024-03-25T11:24:06;10.31;48.58
74376;HTU21D;62812;55.188;61.302;2024-03-25T11:26:40;10.25;49.34
74376;HTU21D;62812;55.188;61.302;2024-03-25T11:29:12;10.20;49.45
74376;HTU21D;62812;55.188;61.302;2024-03-25T11:31:53;10.16;49.08
74376;HTU21D;62812;55.188;61.302;2024-03-25T11:34:20;10.15;49.27
74376;HTU21D;62812;55.188;61.302;2024-03-25T11:41:16;10.19;49.44
74376;HTU21D;62812;55.188;61.302;2024-03-25T11:43:42;10.11;49.43
74376;HTU21D;62812;55.188;61.302;2024-03-25T11:46:09;10.08;49.44
74376;HTU21D;62812;55.188;61.302;2024-03-25T11:48:36;10.12;49.35
74376;HTU21D;62812;55.188;61.302;2024-03-25T11:51:03;10.09;49.95
74376;HTU21D;62812;55.188;61.302;2024-03-25T11:53:30;10.15;49.67
74376;HTU21D;62812;55.188;61.302;2024-03-25T11:55:59;10.15;49.89
74376;HTU21D;62812;55.188;61.302;2024-03-25T11:58:28;10.19;49.24
74376;HTU21D;62812;55.188;61.302;2024-03-25T12:00:55;10.20;49.28
74376;HTU21D;62812;55.188;61.302;2024-03-25T12:03:23;10.21;49.40
74376;HTU21D;62812;55.188;61.302;2024-03-25T12:05:50;10.20;49.41
74376;HTU21D;62812;55.188;61.302;2024-03-25T12:08:19;10.30;48.96
74376;HTU21D;62812;55.188;61.302;2024-03-25T12:10:45;10.29;48.35
74376;HTU21D;62812;55.188;61.302;2024-03-25T12:13:32;10.34;48.66
74376;HTU21D;62812;55.188;61.302;2024-03-25T12:15:59;10.30;48.66
74376;HTU21D;62812;55.188;61.302;2024-03-25T12:18:26;10.22;49.10
74376;HTU21D;62812;55.188;61.302;2024-03-25T12:20:53;10.14;49.81
74376;HTU21D;62812;55.188;61.302;2024-03-25T12:23:19;10.08;49.94
74376;HTU21D;62812;55.188;61.302;2024-03-25T12:25:48;10.09;49.89
74376;HTU21D;62812;55.188;61.302;2024-03-25T12:28:16;10.07;50.03
74376;HTU21D;62812;55.188;61.302;2024-03-25T12:30:51;10.04;50.14
74376;HTU21D;62812;55.188;61.302;2024-03-25T12:33:18;10.01;49.82
74376;HTU21D;62812;55.188;61.302;2024-03-25T12:35:46;9.98;49.47
74376;HTU21D;62812;55.188;61.302;2024-03-25T12:38:25;9.89;49.69
74376;HTU21D;62812;55.188;61.302;2024-03-25T12:41:03;9.86;50.22
74376;HTU21D;62812;55.188;61.302;2024-03-25T12:43:31;9.84;50.02
74376;HTU21D;62812;55.188;61.302;2024-03-25T12:46:00;9.85;50.43
74376;HTU21D;62812;55.188;61.302;2024-03-25T12:48:27;9.90;49.86
74376;HTU21D;62812;55.188;61.302;2024-03-25T12:50:54;9.93;49.70
74376;HTU21D;62812;55.188;61.302;2024-03-25T12:53:20;9.91;49.55
74376;HTU21D;62812;55.188;61.302;2024-03-25T12:55:47;9.92;49.88
74376;HTU21D;62812;55.188;61.302;2024-03-25T12:58:14;9.86;50.08
74376;HTU21D;62812;55.188;61.302;2024-03-25T13:00:41;9.85;49.23
74376;HTU21D;62812;55.188;61.302;2024-03-25T13:03:11;9.90;50.16
74376;HTU21D;62812;55.188;61.302;2024-03-25T13:05:38;10.07;49.33
74376;HTU21D;62812;55.188;61.302;2024-03-25T13:08:06;10.21;48.95
74376;HTU21D;62812;55.188;61.302;2024-03-25T13:10:33;10.12;48.77
74376;HTU21D;62812;55.188;61.302;2024-03-25T13:13:01;10.07;49.30
74376;HTU21D;62812;55.188;61.302;2024-03-25T13:15:31;9.95;49.63
74376;HTU21D;62812;55.188;61.302;2024-03-25T13:17:57;9.80;50.11
74376;HTU21D;62812;55.188;61.302;2024-03-25T13:20:26;9.83;49.85
74376;HTU21D;62812;55.188;61.302;2024-03-25T13:22:54;9.84;49.59
74376;HTU21D;62812;55.188;61.302;2024-03-25T13:25:30;9.82;49.34
74376;HTU21D;62812;55.188;61.302;2024-03-25T13:28:02;9.85;49.58
74376;HTU21D;62812;55.188;61.302;2024-03-25T13:30:30;9.79;49.51
74376;HTU21D;62812;55.188;61.302;2024-03-25T13:33:01;9.72;49.56
74376;HTU21D;62812;55.188;61.302;2024-03-25T13:35:29;9.55;50.07
74376;HTU21D;62812;55.188;61.302;2024-03-25T13:37:57;9.34;51.07
74376;HTU21D;62812;55.188;61.302;2024-03-25T13:40:27;9.25;51.40
74376;HTU21D;62812;55.188;61.302;2024-03-25T13:42:54;9.16;51.90
74376;HTU21D;62812;55.188;61.302;2024-03-25T13:45:21;9.06;52.11
74376;HTU21D;62812;55.188;61.302;2024-03-25T13:47:50;8.97;52.53
74376;HTU21D;62812;55.188;61.302;2024-03-25T13:50:20;8.83;52.82
74376;HTU21D;62812;55.188;61.302;2024-03-25T13:53:11;8.73;53.20
74376;HTU21D;62812;55.188;61.302;2024-03-25T13:55:40;8.68;53.13
74376;HTU21D;62812;55.188;61.302;2024-03-25T13:58:14;8.79;52.88
74376;HTU21D;62812;55.188;61.302;2024-03-25T14:00:44;8.77;52.66
74376;HTU21D;62812;55.188;61.302;2024-03-25T14:03:11;8.72;53.31
74376;HTU21D;62812;55.188;61.302;2024-03-25T14:05:37;8.66;53.55
74376;HTU21D;62812;55.188;61.302;2024-03-25T14:08:04;8.64;53.47
74376;HTU21D;62812;55.188;61.302;2024-03-25T14:10:33;8.67;53.19
74376;HTU21D;62812;55.188;61.302;2024-03-25T14:13:04;8.63;53.91
74376;HTU21D;62812;55.188;61.302;2024-03-25T14:18:29;8.58;53.86
74376;HTU21D;62812;55.188;61.302;2024-03-25T14:21:00;8.48;53.89
74376;HTU21D;62812;55.188;61.302;2024-03-25T14:23:35;8.43;55.09
74376;HTU21D;62812;55.188;61.302;2024-03-25T14:26:03;8.36;55.71
74376;HTU21D;62812;55.188;61.302;2024-03-25T14:28:35;8.32;55.26
74376;HTU21D;62812;55.188;61.302;2024-03-25T14:31:06;8.27;55.10
74376;HTU21D;62812;55.188;61.302;2024-03-25T14:33:33;8.35;54.94
74376;HTU21D;62812;55.188;61.302;2024-03-25T14:36:02;8.35;54.79
74376;HTU21D;62812;55.188;61.302;2024-03-25T14:38:31;8.32;55.52
74376;HTU21D;62812;55.188;61.302;2024-03-25T14:40:58;8.28;55.48
74376;HTU21D;62812;55.188;61.302;2024-03-25T14:43:30;8.19;56.24
74376;HTU21D;62812;55.188;61.302;2024-03-25T14:45:57;8.09;56.36
74376;HTU21D;62812;55.188;61.302;2024-03-25T14:48:29;8.00;57.13
74376;HTU21D;62812;55.188;61.302;2024-03-25T14:51:06;7.85;57.45
74376;HTU21D;62812;55.188;61.302;2024-03-25T14:53:33;7.78;57.92
74376;HTU21D;62812;55.188;61.302;2024-03-25T14:56:00;7.77;58.28
74376;HTU21D;62812;55.188;61.302;2024-03-25T14:58:31;7.70;58.37
74376;HTU21D;62812;55.188;61.302;2024-03-25T15:01:00;7.67;58.09
74376;HTU21D;62812;55.188;61.302;2024-03-25T15:03:26;7.62;59.44
74376;HTU21D;62812;55.188;61.302;2024-03-25T15:09:16;7.50;59.31
74376;HTU21D;62812;55.188;61.302;2024-03-25T15:11:45;7.55;58.61
74376;HTU21D;62812;55.188;61.302;2024-03-25T15:14:22;7.62;58.39
74376;HTU21D;62812;55.188;61.302;2024-03-25T15:16:48;7.69;58.02
74376;HTU21D;62812;55.188;61.302;2024-03-25T15:19:15;7.75;58.46
74376;HTU21D;62812;55.188;61.302;2024-03-25T15:21:43;7.69;59.05
74376;HTU21D;62812;55.188;61.302;2024-03-25T15:24:10;7.64;59.69
74376;HTU21D;62812;55.188;61.302;2024-03-25T15:26:40;7.60;58.34
74376;HTU21D;62812;55.188;61.302;2024-03-25T15:29:09;7.73;56.28
74376;HTU21D;62812;55.188;61.302;2024-03-25T15:31:38;7.77;58.16
74376;HTU21D;62812;55.188;61.302;2024-03-25T15:34:07;7.75;58.46
74376;HTU21D;62812;55.188;61.302;2024-03-25T15:36:37;7.71;57.49
74376;HTU21D;62812;55.188;61.302;2024-03-25T15:39:10;7.74;58.40